sensor_id;sensor_type;location;lat;lon;timestamp;temperature;humidity
67186;HTU21D;54116;53.518;49.398;2023-04-23T00:00:20;-10.95;118.99
67186;HTU21D;54116;53.518;49.398;2023-04-23T00:02:47;-11.12;118.99
67186;HTU21D;54116;53.518;49.398;2023-04-23T00:05:15;-10.90;118.99
67186;HTU21D;54116;53.518;49.398;2023-04-23T00:07:42;-10.91;118.99
67186;HTU21D;54116;53.518;49.398;2023-04-23T00:10:08;-10.95;118.99
67186;HTU21D;54116;53.518;49.398;2023-04-23T00:12:35;-11.01;118.99
67186;HTU21D;54116;53.518;49.398;2023-04-23T00:15:01;-11.10;118.99
67186;HTU21D;54116;53.518;49.398;2023-04-23T00:17:27;-11.17;118.99
67186;HTU21D;54116;53.518;49.398;2023-04-23T00:19:53;-11.10;118.99
67186;HTU21D;54116;53.518;49.398;2023-04-23T00:22:19;-11.14;118.99
67186;HTU21D;54116;53.518;49.398;2023-04-23T00:24:46;-11.22;118.99
67186;HTU21D;54116;53.518;49.398;2023-04-23T00:27:13;-11.12;118.99
67186;HTU21D;54116;53.518;49.398;2023-04-23T00:29:39;-11.25;118.99
67186;HTU21D;54116;53.518;49.398;2023-04-23T00:32:06;-11.25;118.99
67186;HTU21D;54116;53.518;49.398;2023-04-23T00:34:32;-11.21;118.99
67186;HTU21D;54116;53.518;49.398;2023-04-23T00:36:58;-11.12;118.99
67186;HTU21D;54116;53.518;49.398;2023-04-23T00:39:24;-11.09;118.99
67186;HTU21D;54116;53.518;49.398;2023-04-23T00:41:50;-11.23;118.99
67186;HTU21D;54116;53.518;49.398;2023-04-23T00:44:16;-11.46;118.99
67186;HTU21D;54116;53.518;49.398;2023-04-23T00:46:42;-11.06;118.99
67186;HTU21D;54116;53.518;49.398;2023-04-23T00:49:09;-11.42;118.99
67186;HTU21D;54116;53.518;49.398;2023-04-23T00:51:35;-11.51;118.99
67186;HTU21D;54116;53.518;49.398;2023-04-23T00:54:01;-11.34;118.99
67186;HTU21D;54116;53.518;49.398;2023-04-23T00:56:28;-11.45;118.99
67186;HTU21D;54116;53.518;49.398;2023-04-23T00:58:54;-10.21;118.99
67186;HTU21D;54116;53.518;49.398;2023-04-23T01:01:21;-11.52;118.99
67186;HTU21D;54116;53.518;49.398;2023-04-23T01:03:50;-11.38;118.99
67186;HTU21D;54116;53.518;49.398;2023-04-23T01:06:17;-11.61;118.99
67186;HTU21D;54116;53.518;49.398;2023-04-23T01:08:44;-11.41;118.99
67186;HTU21D;54116;53.518;49.398;2023-04-23T01:11:13;-11.77;118.99
67186;HTU21D;54116;53.518;49.398;2023-04-23T01:13:40;-11.75;118.99
67186;HTU21D;54116;53.518;49.398;2023-04-23T01:16:07;-11.62;118.99
67186;HTU21D;54116;53.518;49.398;2023-04-23T01:18:33;-11.73;118.99
67186;HTU21D;54116;53.518;49.398;2023-04-23T01:20:59;-11.66;118.99
67186;HTU21D;54116;53.518;49.398;2023-04-23T01:23:26;-11.75;118.99
67186;HTU21D;54116;53.518;49.398;2023-04-23T01:25:53;-11.77;118.99
67186;HTU21D;54116;53.518;49.398;2023-04-23T01:28:20;-11.83;118.99
67186;HTU21D;54116;53.518;49.398;2023-04-23T01:30:46;-11.76;118.99
67186;HTU21D;54116;53.518;49.398;2023-04-23T01:33:13;-11.74;118.99
67186;HTU21D;54116;53.518;49.398;2023-04-23T01:35:42;-11.71;118.99
67186;HTU21D;54116;53.518;49.398;2023-04-23T01:38:10;-11.58;118.99
67186;HTU21D;54116;53.518;49.398;2023-04-23T01:40:37;-11.40;118.99
67186;HTU21D;54116;53.518;49.398;2023-04-23T01:43:04;-11.60;118.99
67186;HTU21D;54116;53.518;49.398;2023-04-23T01:45:31;-11.73;118.99
67186;HTU21D;54116;53.518;49.398;2023-04-23T01:47:59;-11.78;118.99
67186;HTU21D;54116;53.518;49.398;2023-04-23T01:50:25;-11.80;118.99
67186;HTU21D;54116;53.518;49.398;2023-04-23T01:52:52;-11.70;118.99
67186;HTU21D;54116;53.518;49.398;2023-04-23T01:55:18;-11.53;118.99
67186;HTU21D;54116;53.518;49.398;2023-04-23T01:57:46;-11.46;118.99
67186;HTU21D;54116;53.518;49.398;2023-04-23T02:00:13;-11.45;118.99
67186;HTU21D;54116;53.518;49.398;2023-04-23T02:02:41;-11.36;118.99
67186;HTU21D;54116;53.518;49.398;2023-04-23T02:05:10;-11.22;118.99
67186;HTU21D;54116;53.518;49.398;2023-04-23T02:07:37;-11.25;118.99
67186;HTU21D;54116;53.518;49.398;2023-04-23T02:10:04;-11.16;118.99
67186;HTU21D;54116;53.518;49.398;2023-04-23T02:12:31;-11.19;118.99
67186;HTU21D;54116;53.518;49.398;2023-04-23T02:14:57;-10.95;118.99
67186;HTU21D;54116;53.518;49.398;2023-04-23T02:17:23;-10.95;118.99
67186;HTU21D;54116;53.518;49.398;2023-04-23T02:19:49;-10.84;118.99
67186;HTU21D;54116;53.518;49.398;2023-04-23T02:22:16;-10.73;118.99
67186;HTU21D;54116;53.518;49.398;2023-04-23T02:24:43;-10.37;118.99
67186;HTU21D;54116;53.518;49.398;2023-04-23T02:27:09;-10.33;118.99
67186;HTU21D;54116;53.518;49.398;2023-04-23T02:29:35;-10.31;118.99
67186;HTU21D;54116;53.518;49.398;2023-04-23T02:32:07;-9.86;118.99
67186;HTU21D;54116;53.518;49.398;2023-04-23T02:34:33;-9.72;118.99
67186;HTU21D;54116;53.518;49.398;2023-04-23T02:36:59;-9.43;118.99
67186;HTU21D;54116;53.518;49.398;2023-04-23T02:39:26;-9.22;118.99
67186;HTU21D;54116;53.518;49.398;2023-04-23T02:41:52;-9.05;118.99
67186;HTU21D;54116;53.518;49.398;2023-04-23T02:44:18;-8.88;118.99
67186;HTU21D;54116;53.518;49.398;2023-04-23T02:46:44;-8.69;118.99
67186;HTU21D;54116;53.518;49.398;2023-04-23T02:49:11;-8.44;118.99
67186;HTU21D;54116;53.518;49.398;2023-04-23T02:51:37;-8.27;118.99
67186;HTU21D;54116;53.518;49.398;2023-04-23T02:54:03;-8.18;118.99
67186;HTU21D;54116;53.518;49.398;2023-04-23T02:56:31;-7.90;118.99
67186;HTU21D;54116;53.518;49.398;2023-04-23T02:58:57;-7.54;118.99
67186;HTU21D;54116;53.518;49.398;2023-04-23T03:01:23;-7.20;118.99
67186;HTU21D;54116;53.518;49.398;2023-04-23T03:03:49;-6.78;118.99
67186;HTU21D;54116;53.518;49.398;2023-04-23T03:06:15;-6.82;118.99
67186;HTU21D;54116;53.518;49.398;2023-04-23T03:08:41;-6.33;118.99
67186;HTU21D;54116;53.518;49.398;2023-04-23T03:11:07;-6.47;118.99
67186;HTU21D;54116;53.518;49.398;2023-04-23T03:13:33;-6.50;118.99
67186;HTU21D;54116;53.518;49.398;2023-04-23T03:15:59;-6.63;118.99
67186;HTU21D;54116;53.518;49.398;2023-04-23T03:18:25;-6.39;118.99
67186;HTU21D;54116;53.518;49.398;2023-04-23T03:20:51;-6.35;118.99
67186;HTU21D;54116;53.518;49.398;2023-04-23T03:23:18;-6.72;118.99
67186;HTU21D;54116;53.518;49.398;2023-04-23T03:25:44;-6.65;118.99
67186;HTU21D;54116;53.518;49.398;2023-04-23T03:28:10;-6.86;118.99
67186;HTU21D;54116;53.518;49.398;2023-04-23T03:30:36;-6.65;118.99
67186;HTU21D;54116;53.518;49.398;2023-04-23T03:33:03;-6.15;118.99
67186;HTU21D;54116;53.518;49.398;2023-04-23T03:35:29;-6.03;118.99
67186;HTU21D;54116;53.518;49.398;2023-04-23T03:37:55;-6.21;118.99
67186;HTU21D;54116;53.518;49.398;2023-04-23T03:40:21;-5.99;118.99
67186;HTU21D;54116;53.518;49.398;2023-04-23T03:42:47;-5.34;118.99
67186;HTU21D;54116;53.518;49.398;2023-04-23T03:45:14;-5.37;118.99
67186;HTU21D;54116;53.518;49.398;2023-04-23T03:47:42;-5.30;118.99
67186;HTU21D;54116;53.518;49.398;2023-04-23T03:50:09;-5.65;118.99
67186;HTU21D;54116;53.518;49.398;2023-04-23T03:52:35;-5.90;118.99
67186;HTU21D;54116;53.518;49.398;2023-04-23T03:55:01;-5.93;118.99
67186;HTU21D;54116;53.518;49.398;2023-04-23T03:57:28;-6.18;118.99
67186;HTU21D;54116;53.518;49.398;2023-04-23T03:59:54;-6.16;118.99
67186;HTU21D;54116;53.518;49.398;2023-04-23T04:02:21;-5.91;118.99
67186;HTU21D;54116;53.518;49.398;2023-04-23T04:04:48;-5.47;118.99
67186;HTU21D;54116;53.518;49.398;2023-04-23T04:07:17;-4.96;118.99
67186;HTU21D;54116;53.518;49.398;2023-04-23T04:09:43;-3.92;118.99
67186;HTU21D;54116;53.518;49.398;2023-04-23T04:12:09;-2.32;118.99
67186;HTU21D;54116;53.518;49.398;2023-04-23T04:14:37;-1.43;118.99
67186;HTU21D;54116;53.518;49.398;2023-04-23T04:17:03;-0.58;118.99
67186;HTU21D;54116;53.518;49.398;2023-04-23T04:19:29;-0.29;118.99
67186;HTU21D;54116;53.518;49.398;2023-04-23T04:21:59;0.15;118.99
67186;HTU21D;54116;53.518;49.398;2023-04-23T04:24:27;0.90;118.99
67186;HTU21D;54116;53.518;49.398;2023-04-23T04:26:58;1.33;118.99
67186;HTU21D;54116;53.518;49.398;2023-04-23T04:29:25;1.04;118.99
67186;HTU21D;54116;53.518;49.398;2023-04-23T04:31:53;0.68;118.99
67186;HTU21D;54116;53.518;49.398;2023-04-23T04:34:20;1.11;118.99
67186;HTU21D;54116;53.518;49.398;2023-04-23T04:36:46;0.86;118.99
67186;HTU21D;54116;53.518;49.398;2023-04-23T04:39:13;0.87;118.99
67186;HTU21D;54116;53.518;49.398;2023-04-23T04:41:40;1.21;118.99
67186;HTU21D;54116;53.518;49.398;2023-04-23T04:44:07;1.45;118.99
67186;HTU21D;54116;53.518;49.398;2023-04-23T04:46:33;1.16;118.99
67186;HTU21D;54116;53.518;49.398;2023-04-23T04:49:06;1.38;118.99
67186;HTU21D;54116;53.518;49.398;2023-04-23T04:51:34;0.63;118.99
67186;HTU21D;54116;53.518;49.398;2023-04-23T04:54:00;0.49;118.99
67186;HTU21D;54116;53.518;49.398;2023-04-23T04:56:26;0.48;118.99
67186;HTU21D;54116;53.518;49.398;2023-04-23T04:58:52;0.35;118.99
67186;HTU21D;54116;53.518;49.398;2023-04-23T05:01:20;0.25;118.99
67186;HTU21D;54116;53.518;49.398;2023-04-23T05:03:46;-0.15;118.99
67186;HTU21D;54116;53.518;49.398;2023-04-23T05:06:12;0.37;118.99
67186;HTU21D;54116;53.518;49.398;2023-04-23T05:08:43;0.43;118.99
67186;HTU21D;54116;53.518;49.398;2023-04-23T05:11:17;0.15;118.99
67186;HTU21D;54116;53.518;49.398;2023-04-23T05:13:46;0.07;118.99
67186;HTU21D;54116;53.518;49.398;2023-04-23T05:16:13;0.33;118.99
67186;HTU21D;54116;53.518;49.398;2023-04-23T05:18:40;0.23;118.99
67186;HTU21D;54116;53.518;49.398;2023-04-23T05:21:07;0.44;118.99
67186;HTU21D;54116;53.518;49.398;2023-04-23T05:23:36;0.78;118.99
67186;HTU21D;54116;53.518;49.398;2023-04-23T05:26:02;0.49;118.99
67186;HTU21D;54116;53.518;49.398;2023-04-23T05:28:29;0.23;118.99
67186;HTU21D;54116;53.518;49.398;2023-04-23T05:30:56;0.25;118.99
67186;HTU21D;54116;53.518;49.398;2023-04-23T05:33:23;0.22;118.99
67186;HTU21D;54116;53.518;49.398;2023-04-23T05:35:50;0.42;118.99
67186;HTU21D;54116;53.518;49.398;2023-04-23T05:38:16;0.21;118.99
67186;HTU21D;54116;53.518;49.398;2023-04-23T05:40:43;0.34;118.99
67186;HTU21D;54116;53.518;49.398;2023-04-23T05:43:11;-0.17;118.99
67186;HTU21D;54116;53.518;49.398;2023-04-23T05:45:39;-0.35;118.99
67186;HTU21D;54116;53.518;49.398;2023-04-23T05:48:05;-0.26;118.99
67186;HTU21D;54116;53.518;49.398;2023-04-23T05:50:31;0.16;118.99
67186;HTU21D;54116;53.518;49.398;2023-04-23T05:52:57;0.55;118.99
67186;HTU21D;54116;53.518;49.398;2023-04-23T05:55:23;0.55;118.99
67186;HTU21D;54116;53.518;49.398;2023-04-23T05:57:50;0.47;118.99
67186;HTU21D;54116;53.518;49.398;2023-04-23T06:00:16;0.14;118.99
67186;HTU21D;54116;53.518;49.398;2023-04-23T06:02:42;0.06;118.99
67186;HTU21D;54116;53.518;49.398;2023-04-23T06:05:09;-0.30;118.99
67186;HTU21D;54116;53.518;49.398;2023-04-23T06:07:35;-0.14;118.99
67186;HTU21D;54116;53.518;49.398;2023-04-23T06:10:02;0.27;118.99
67186;HTU21D;54116;53.518;49.398;2023-04-23T06:12:48;-0.20;118.99
67186;HTU21D;54116;53.518;49.398;2023-04-23T06:15:15;-0.43;118.99
67186;HTU21D;54116;53.518;49.398;2023-04-23T06:17:41;-0.62;118.99
67186;HTU21D;54116;53.518;49.398;2023-04-23T06:20:12;-0.46;118.99
67186;HTU21D;54116;53.518;49.398;2023-04-23T06:22:38;-0.37;118.99
67186;HTU21D;54116;53.518;49.398;2023-04-23T06:25:24;-0.94;118.99
67186;HTU21D;54116;53.518;49.398;2023-04-23T06:27:51;-1.45;118.99
67186;HTU21D;54116;53.518;49.398;2023-04-23T06:30:17;-1.33;118.99
67186;HTU21D;54116;53.518;49.398;2023-04-23T06:35:29;-1.17;118.99
67186;HTU21D;54116;53.518;49.398;2023-04-23T06:38:14;-1.35;118.99
67186;HTU21D;54116;53.518;49.398;2023-04-23T06:40:40;-1.30;118.99
67186;HTU21D;54116;53.518;49.398;2023-04-23T06:43:07;-1.29;118.99
67186;HTU21D;54116;53.518;49.398;2023-04-23T06:45:34;-1.34;118.99
67186;HTU21D;54116;53.518;49.398;2023-04-23T06:48:01;-1.45;118.99
67186;HTU21D;54116;53.518;49.398;2023-04-23T06:50:27;-1.60;118.99
67186;HTU21D;54116;53.518;49.398;2023-04-23T06:53:12;-1.99;118.99
67186;HTU21D;54116;53.518;49.398;2023-04-23T06:55:38;-2.14;118.99
67186;HTU21D;54116;53.518;49.398;2023-04-23T06:58:04;-2.16;118.99
67186;HTU21D;54116;53.518;49.398;2023-04-23T07:00:32;-2.08;118.99
67186;HTU21D;54116;53.518;49.398;2023-04-23T07:02:58;-2.15;118.99
67186;HTU21D;54116;53.518;49.398;2023-04-23T07:05:26;-2.16;118.99
67186;HTU21D;54116;53.518;49.398;2023-04-23T07:07:52;-2.06;118.99
67186;HTU21D;54116;53.518;49.398;2023-04-23T07:10:18;-2.19;118.99
67186;HTU21D;54116;53.518;49.398;2023-04-23T07:12:44;-2.16;118.99
67186;HTU21D;54116;53.518;49.398;2023-04-23T07:15:10;-2.28;118.99
67186;HTU21D;54116;53.518;49.398;2023-04-23T07:17:37;-2.30;118.99
67186;HTU21D;54116;53.518;49.398;2023-04-23T07:20:03;-2.36;118.99
67186;HTU21D;54116;53.518;49.398;2023-04-23T07:22:31;-2.36;118.99
67186;HTU21D;54116;53.518;49.398;2023-04-23T07:24:58;-2.22;118.99
67186;HTU21D;54116;53.518;49.398;2023-04-23T07:27:24;-2.09;118.99
67186;HTU21D;54116;53.518;49.398;2023-04-23T07:29:51;-2.07;118.99
67186;HTU21D;54116;53.518;49.398;2023-04-23T07:32:17;-2.01;118.99
67186;HTU21D;54116;53.518;49.398;2023-04-23T07:34:43;-2.01;118.99
67186;HTU21D;54116;53.518;49.398;2023-04-23T07:37:10;-1.74;118.99
67186;HTU21D;54116;53.518;49.398;2023-04-23T07:39:36;-1.82;118.99
67186;HTU21D;54116;53.518;49.398;2023-04-23T07:42:02;-1.67;118.99
67186;HTU21D;54116;53.518;49.398;2023-04-23T07:44:29;-1.59;118.99
67186;HTU21D;54116;53.518;49.398;2023-04-23T07:46:55;-2.07;118.99
67186;HTU21D;54116;53.518;49.398;2023-04-23T07:49:22;-2.12;118.99
67186;HTU21D;54116;53.518;49.398;2023-04-23T07:51:49;-2.02;118.99
67186;HTU21D;54116;53.518;49.398;2023-04-23T07:57:19;-1.85;118.99
67186;HTU21D;54116;53.518;49.398;2023-04-23T07:59:45;-1.93;118.99
67186;HTU21D;54116;53.518;49.398;2023-04-23T08:02:11;-1.88;118.99
67186;HTU21D;54116;53.518;49.398;2023-04-23T08:04:37;-1.84;118.99
67186;HTU21D;54116;53.518;49.398;2023-04-23T08:07:03;-1.83;118.99
67186;HTU21D;54116;53.518;49.398;2023-04-23T08:09:29;-1.79;118.99
67186;HTU21D;54116;53.518;49.398;2023-04-23T08:11:55;-1.68;118.99
67186;HTU21D;54116;53.518;49.398;2023-04-23T08:14:22;-1.64;118.99
67186;HTU21D;54116;53.518;49.398;2023-04-23T08:16:48;-1.71;118.99
67186;HTU21D;54116;53.518;49.398;2023-04-23T08:19:14;-1.45;118.99
67186;HTU21D;54116;53.518;49.398;2023-04-23T08:24:26;-1.40;118.99
67186;HTU21D;54116;53.518;49.398;2023-04-23T08:26:52;-1.34;118.99
67186;HTU21D;54116;53.518;49.398;2023-04-23T08:29:18;-1.38;118.99
67186;HTU21D;54116;53.518;49.398;2023-04-23T08:31:44;-1.47;118.99
67186;HTU21D;54116;53.518;49.398;2023-04-23T08:34:10;-1.20;118.99
67186;HTU21D;54116;53.518;49.398;2023-04-23T08:36:37;-1.44;118.99
67186;HTU21D;54116;53.518;49.398;2023-04-23T08:39:03;-1.29;118.99
67186;HTU21D;54116;53.518;49.398;2023-04-23T08:41:36;-1.30;118.99
67186;HTU21D;54116;53.518;49.398;2023-04-23T08:44:23;-1.12;118.99
67186;HTU21D;54116;53.518;49.398;2023-04-23T08:49:40;-1.24;118.99
67186;HTU21D;54116;53.518;49.398;2023-04-23T08:52:15;-1.38;118.99
67186;HTU21D;54116;53.518;49.398;2023-04-23T08:54:47;-1.38;118.99
67186;HTU21D;54116;53.518;49.398;2023-04-23T08:57:16;-1.48;118.99
67186;HTU21D;54116;53.518;49.398;2023-04-23T09:02:32;-1.49;118.99
67186;HTU21D;54116;53.518;49.398;2023-04-23T09:04:59;-1.47;118.99
67186;HTU21D;54116;53.518;49.398;2023-04-23T09:07:27;-1.23;118.99
67186;HTU21D;54116;53.518;49.398;2023-04-23T09:09:53;-0.87;118.99
67186;HTU21D;54116;53.518;49.398;2023-04-23T09:12:20;-1.18;118.99
67186;HTU21D;54116;53.518;49.398;2023-04-23T09:14:48;-1.27;118.99
67186;HTU21D;54116;53.518;49.398;2023-04-23T09:17:15;-1.29;118.99
67186;HTU21D;54116;53.518;49.398;2023-04-23T09:20:01;-1.27;118.99
67186;HTU21D;54116;53.518;49.398;2023-04-23T09:25:10;-1.13;118.99
67186;HTU21D;54116;53.518;49.398;2023-04-23T09:27:37;-1.09;118.99
67186;HTU21D;54116;53.518;49.398;2023-04-23T09:32:52;-1.15;118.99
67186;HTU21D;54116;53.518;49.398;2023-04-23T09:38:04;-1.24;118.99
67186;HTU21D;54116;53.518;49.398;2023-04-23T09:40:33;-1.24;118.99
67186;HTU21D;54116;53.518;49.398;2023-04-23T09:43:02;-0.84;118.99
67186;HTU21D;54116;53.518;49.398;2023-04-23T09:45:29;-0.93;118.99
67186;HTU21D;54116;53.518;49.398;2023-04-23T09:47:56;-0.72;118.99
67186;HTU21D;54116;53.518;49.398;2023-04-23T09:50:38;-0.60;118.99
67186;HTU21D;54116;53.518;49.398;2023-04-23T09:53:05;-0.47;118.99
67186;HTU21D;54116;53.518;49.398;2023-04-23T09:55:33;-0.52;118.99
67186;HTU21D;54116;53.518;49.398;2023-04-23T09:58:09;-0.68;118.99
67186;HTU21D;54116;53.518;49.398;2023-04-23T10:00:37;-1.30;118.99
67186;HTU21D;54116;53.518;49.398;2023-04-23T10:03:26;-1.33;118.99
67186;HTU21D;54116;53.518;49.398;2023-04-23T10:05:57;-1.33;118.99
67186;HTU21D;54116;53.518;49.398;2023-04-23T10:08:24;-1.19;118.99
67186;HTU21D;54116;53.518;49.398;2023-04-23T10:10:50;-0.96;118.99
67186;HTU21D;54116;53.518;49.398;2023-04-23T10:13:17;-0.90;118.99
67186;HTU21D;54116;53.518;49.398;2023-04-23T10:15:47;-0.91;118.99
67186;HTU21D;54116;53.518;49.398;2023-04-23T10:18:13;-0.83;118.99
67186;HTU21D;54116;53.518;49.398;2023-04-23T10:20:41;-0.77;118.99
67186;HTU21D;54116;53.518;49.398;2023-04-23T10:25:56;-1.00;118.99
67186;HTU21D;54116;53.518;49.398;2023-04-23T10:28:25;-1.32;118.99
67186;HTU21D;54116;53.518;49.398;2023-04-23T10:30:57;-1.33;118.99
67186;HTU21D;54116;53.518;49.398;2023-04-23T10:33:25;-1.34;118.99
67186;HTU21D;54116;53.518;49.398;2023-04-23T10:35:55;-1.20;118.99
67186;HTU21D;54116;53.518;49.398;2023-04-23T10:38:22;-1.35;118.99
67186;HTU21D;54116;53.518;49.398;2023-04-23T10:40:51;-1.27;118.99
67186;HTU21D;54116;53.518;49.398;2023-04-23T10:43:22;-1.04;118.99
67186;HTU21D;54116;53.518;49.398;2023-04-23T10:45:51;-0.89;118.99
67186;HTU21D;54116;53.518;49.398;2023-04-23T10:48:19;-0.76;118.99
67186;HTU21D;54116;53.518;49.398;2023-04-23T10:53:41;-0.79;118.99
67186;HTU21D;54116;53.518;49.398;2023-04-23T10:56:08;-0.84;118.99
67186;HTU21D;54116;53.518;49.398;2023-04-23T10:58:48;-1.05;118.99
67186;HTU21D;54116;53.518;49.398;2023-04-23T11:01:34;-1.01;118.99
67186;HTU21D;54116;53.518;49.398;2023-04-23T11:04:20;-0.84;118.99
67186;HTU21D;54116;53.518;49.398;2023-04-23T11:12:00;-0.83;118.99
67186;HTU21D;54116;53.518;49.398;2023-04-23T11:14:34;-0.99;118.99
67186;HTU21D;54116;53.518;49.398;2023-04-23T11:17:04;-0.96;118.99
67186;HTU21D;54116;53.518;49.398;2023-04-23T11:19:39;-0.71;118.99
67186;HTU21D;54116;53.518;49.398;2023-04-23T11:24:56;-0.84;118.99
67186;HTU21D;54116;53.518;49.398;2023-04-23T11:27:22;-0.86;118.99
67186;HTU21D;54116;53.518;49.398;2023-04-23T11:29:49;-0.84;118.99
67186;HTU21D;54116;53.518;49.398;2023-04-23T11:32:16;-0.61;118.99
67186;HTU21D;54116;53.518;49.398;2023-04-23T11:34:44;-0.45;118.99
67186;HTU21D;54116;53.518;49.398;2023-04-23T11:37:14;-0.50;118.99
67186;HTU21D;54116;53.518;49.398;2023-04-23T11:42:28;-0.74;118.99
67186;HTU21D;54116;53.518;49.398;2023-04-23T11:44:54;-0.70;118.99
67186;HTU21D;54116;53.518;49.398;2023-04-23T11:47:25;-0.69;118.99
67186;HTU21D;54116;53.518;49.398;2023-04-23T11:52:37;-0.58;118.99
67186;HTU21D;54116;53.518;49.398;2023-04-23T11:55:06;-0.53;118.99
67186;HTU21D;54116;53.518;49.398;2023-04-23T11:57:40;-0.46;118.99
67186;HTU21D;54116;53.518;49.398;2023-04-23T12:00:26;-0.61;118.99
67186;HTU21D;54116;53.518;49.398;2023-04-23T12:03:00;-0.58;118.99
67186;HTU21D;54116;53.518;49.398;2023-04-23T12:08:16;-0.44;118.99
67186;HTU21D;54116;53.518;49.398;2023-04-23T12:11:02;-0.57;118.99
67186;HTU21D;54116;53.518;49.398;2023-04-23T12:13:30;-0.50;118.99
67186;HTU21D;54116;53.518;49.398;2023-04-23T12:16:00;-0.50;118.99
67186;HTU21D;54116;53.518;49.398;2023-04-23T12:18:34;-0.58;118.99
67186;HTU21D;54116;53.518;49.398;2023-04-23T12:21:24;-0.57;118.99
67186;HTU21D;54116;53.518;49.398;2023-04-23T12:26:36;-0.79;118.99
67186;HTU21D;54116;53.518;49.398;2023-04-23T12:29:02;-0.61;118.99
67186;HTU21D;54116;53.518;49.398;2023-04-23T12:31:48;-0.38;118.99
67186;HTU21D;54116;53.518;49.398;2023-04-23T12:34:15;-0.49;118.99
67186;HTU21D;54116;53.518;49.398;2023-04-23T12:36:50;-0.50;118.99
67186;HTU21D;54116;53.518;49.398;2023-04-23T12:42:07;-0.82;118.99
67186;HTU21D;54116;53.518;49.398;2023-04-23T12:44:36;-0.67;118.99
67186;HTU21D;54116;53.518;49.398;2023-04-23T12:47:08;-0.66;118.99
67186;HTU21D;54116;53.518;49.398;2023-04-23T12:49:37;-0.55;118.99
67186;HTU21D;54116;53.518;49.398;2023-04-23T12:52:06;-0.53;118.99
67186;HTU21D;54116;53.518;49.398;2023-04-23T12:54:40;-0.70;118.99
67186;HTU21D;54116;53.518;49.398;2023-04-23T12:57:09;-0.53;118.99
67186;HTU21D;54116;53.518;49.398;2023-04-23T12:59:36;-0.68;118.99
67186;HTU21D;54116;53.518;49.398;2023-04-23T13:04:48;-0.59;118.99
67186;HTU21D;54116;53.518;49.398;2023-04-23T13:07:14;-0.49;118.99
67186;HTU21D;54116;53.518;49.398;2023-04-23T13:09:41;-0.59;118.99
67186;HTU21D;54116;53.518;49.398;2023-04-23T13:14:52;-0.52;118.99
67186;HTU21D;54116;53.518;49.398;2023-04-23T13:17:18;-0.50;118.99
67186;HTU21D;54116;53.518;49.398;2023-04-23T13:19:45;-0.53;118.99
67186;HTU21D;54116;53.518;49.398;2023-04-23T13:22:11;-0.52;118.99
67186;HTU21D;54116;53.518;49.398;2023-04-23T13:24:38;-0.44;118.99
67186;HTU21D;54116;53.518;49.398;2023-04-23T13:27:04;-0.65;118.99
67186;HTU21D;54116;53.518;49.398;2023-04-23T13:29:30;-0.61;118.99
67186;HTU21D;54116;53.518;49.398;2023-04-23T13:31:56;-0.68;118.99
67186;HTU21D;54116;53.518;49.398;2023-04-23T13:34:23;-0.67;118.99
67186;HTU21D;54116;53.518;49.398;2023-04-23T13:36:50;-0.66;118.99
67186;HTU21D;54116;53.518;49.398;2023-04-23T13:39:16;-0.66;118.99
67186;HTU21D;54116;53.518;49.398;2023-04-23T13:41:43;-0.62;118.99
67186;HTU21D;54116;53.518;49.398;2023-04-23T13:44:09;-0.60;118.99
67186;HTU21D;54116;53.518;49.398;2023-04-23T13:46:38;-0.65;118.99
67186;HTU21D;54116;53.518;49.398;2023-04-23T13:49:05;-0.66;118.99
67186;HTU21D;54116;53.518;49.398;2023-04-23T13:51:31;-0.67;118.99
67186;HTU21D;54116;53.518;49.398;2023-04-23T13:53:58;-0.66;118.99
67186;HTU21D;54116;53.518;49.398;2023-04-23T13:56:25;-0.66;118.99
67186;HTU21D;54116;53.518;49.398;2023-04-23T13:58:52;-0.52;118.99
67186;HTU21D;54116;53.518;49.398;2023-04-23T14:01:20;-0.71;118.99
67186;HTU21D;54116;53.518;49.398;2023-04-23T14:06:50;-0.98;118.99
67186;HTU21D;54116;53.518;49.398;2023-04-23T14:09:16;-0.95;118.99
67186;HTU21D;54116;53.518;49.398;2023-04-23T14:11:44;-0.91;118.99
67186;HTU21D;54116;53.518;49.398;2023-04-23T14:14:10;-1.08;118.99
67186;HTU21D;54116;53.518;49.398;2023-04-23T14:16:36;-1.17;118.99
67186;HTU21D;54116;53.518;49.398;2023-04-23T14:19:03;-1.19;118.99
67186;HTU21D;54116;53.518;49.398;2023-04-23T14:21:29;-1.19;118.99
67186;HTU21D;54116;53.518;49.398;2023-04-23T14:24:01;-1.32;118.99
67186;HTU21D;54116;53.518;49.398;2023-04-23T14:26:46;-1.41;118.99
67186;HTU21D;54116;53.518;49.398;2023-04-23T14:32:05;-1.58;118.99
67186;HTU21D;54116;53.518;49.398;2023-04-23T14:34:36;-1.53;118.99
67186;HTU21D;54116;53.518;49.398;2023-04-23T14:37:21;-1.49;118.99
67186;HTU21D;54116;53.518;49.398;2023-04-23T14:39:47;-1.44;118.99
67186;HTU21D;54116;53.518;49.398;2023-04-23T14:42:14;-1.48;118.99
67186;HTU21D;54116;53.518;49.398;2023-04-23T14:44:40;-1.52;118.99
67186;HTU21D;54116;53.518;49.398;2023-04-23T14:47:06;-1.54;118.99
67186;HTU21D;54116;53.518;49.398;2023-04-23T14:49:34;-1.55;118.99
67186;HTU21D;54116;53.518;49.398;2023-04-23T14:52:19;-1.50;118.99
67186;HTU21D;54116;53.518;49.398;2023-04-23T14:54:45;-1.64;118.99
67186;HTU21D;54116;53.518;49.398;2023-04-23T14:57:30;-1.71;118.99
67186;HTU21D;54116;53.518;49.398;2023-04-23T15:00:15;-1.92;118.99
67186;HTU21D;54116;53.518;49.398;2023-04-23T15:02:42;-2.01;118.99
67186;HTU21D;54116;53.518;49.398;2023-04-23T15:05:11;-1.98;118.99
67186;HTU21D;54116;53.518;49.398;2023-04-23T15:07:39;-2.05;118.99
67186;HTU21D;54116;53.518;49.398;2023-04-23T15:10:07;-2.27;118.99
67186;HTU21D;54116;53.518;49.398;2023-04-23T15:13:13;-2.39;118.99
67186;HTU21D;54116;53.518;49.398;2023-04-23T15:15:54;-2.59;118.99
67186;HTU21D;54116;53.518;49.398;2023-04-23T15:18:21;-2.67;118.99
67186;HTU21D;54116;53.518;49.398;2023-04-23T15:20:47;-2.80;118.99
67186;HTU21D;54116;53.518;49.398;2023-04-23T15:23:13;-2.92;118.99
67186;HTU21D;54116;53.518;49.398;2023-04-23T15:25:39;-3.05;118.99
67186;HTU21D;54116;53.518;49.398;2023-04-23T15:28:05;-3.20;118.99
67186;HTU21D;54116;53.518;49.398;2023-04-23T15:30:31;-3.27;118.99
67186;HTU21D;54116;53.518;49.398;2023-04-23T15:32:57;-3.39;118.99
67186;HTU21D;54116;53.518;49.398;2023-04-23T15:35:25;-3.45;118.99
67186;HTU21D;54116;53.518;49.398;2023-04-23T15:37:52;-3.39;118.99
67186;HTU21D;54116;53.518;49.398;2023-04-23T15:40:18;-3.57;118.99
67186;HTU21D;54116;53.518;49.398;2023-04-23T15:42:44;-3.63;118.99
67186;HTU21D;54116;53.518;49.398;2023-04-23T15:45:29;-3.82;118.99
67186;HTU21D;54116;53.518;49.398;2023-04-23T15:47:55;-3.87;118.99
67186;HTU21D;54116;53.518;49.398;2023-04-23T15:50:21;-3.93;118.99
67186;HTU21D;54116;53.518;49.398;2023-04-23T15:52:51;-4.02;118.99
67186;HTU21D;54116;53.518;49.398;2023-04-23T15:58:04;-4.35;118.99